createdAt,value
2022-11-02T00:02:36.290Z,100819
2022-11-02T00:07:36.389Z,100823
2022-11-02T00:12:36.211Z,100826
2022-11-02T00:17:36.381Z,100835
2022-11-02T00:22:36.080Z,100835
2022-11-02T00:27:36.334Z,100827
2022-11-02T00:32:36.123Z,100832
2022-11-02T00:37:36.326Z,100832
2022-11-02T00:42:36.154Z,100831
2022-11-02T00:47:36.294Z,100825
2022-11-02T00:52:36.429Z,100826
2022-11-02T00:57:36.088Z,100832
2022-11-02T01:07:36.554Z,100819
2022-11-02T01:12:36.339Z,100826
2022-11-02T01:17:36.213Z,100826
2022-11-02T01:22:36.132Z,100821
2022-11-02T01:27:36.167Z,100821
2022-11-02T01:32:36.114Z,100816
2022-11-02T01:37:36.452Z,100823
2022-11-02T01:42:36.278Z,100807
2022-11-02T01:47:36.087Z,100799
2022-11-02T01:52:36.252Z,100798
2022-11-02T01:57:36.288Z,100798
2022-11-02T02:02:36.383Z,100824
2022-11-02T02:07:36.154Z,100813
2022-11-02T02:12:36.303Z,100820
2022-11-02T02:17:36.109Z,100816
2022-11-02T02:27:36.349Z,100815
2022-11-02T02:32:36.368Z,100818
2022-11-02T02:37:36.166Z,100817
2022-11-02T02:42:36.149Z,100825
2022-11-02T02:47:36.259Z,100825
2022-11-02T02:52:36.357Z,100826
2022-11-02T02:57:36.189Z,100828
2022-11-02T03:02:36.278Z,100830
2022-11-02T03:07:36.183Z,100838
2022-11-02T03:12:36.321Z,100838
2022-11-02T03:17:36.672Z,100850
2022-11-02T03:22:36.192Z,100859
2022-11-02T03:27:36.425Z,100867
2022-11-02T03:32:36.126Z,100885
2022-11-02T03:37:36.414Z,100887
2022-11-02T03:42:36.244Z,100887
2022-11-02T03:47:36.366Z,100894
2022-11-02T03:52:36.203Z,100894
2022-11-02T03:57:36.184Z,100895
2022-11-02T04:02:36.280Z,100884
2022-11-02T04:07:36.188Z,100884
2022-11-02T04:12:36.455Z,100870
2022-11-02T04:17:36.269Z,100851
2022-11-02T04:22:36.491Z,100860
2022-11-02T04:27:36.207Z,100880
2022-11-02T04:37:36.768Z,100895
2022-11-02T04:42:36.332Z,100900
2022-11-02T04:47:36.488Z,100900
2022-11-02T04:57:36.276Z,100906
2022-11-02T05:02:36.485Z,100925
2022-11-02T05:07:36.211Z,100921
2022-11-02T05:12:36.223Z,100927
2022-11-02T05:17:36.427Z,100927
2022-11-02T05:22:36.189Z,100933
2022-11-02T05:27:36.238Z,100938
2022-11-02T05:32:36.519Z,100939
2022-11-02T05:37:36.354Z,100939
2022-11-02T05:42:36.501Z,100936
2022-11-02T05:47:36.316Z,100949
2022-11-02T05:52:36.224Z,100949
2022-11-02T05:57:36.290Z,100939
2022-11-02T06:02:36.425Z,100938
2022-11-02T06:12:36.658Z,100928
2022-11-02T06:17:36.245Z,100926
2022-11-02T06:22:36.375Z,100928
2022-11-02T06:27:36.514Z,100933
2022-11-02T06:32:36.307Z,100933
2022-11-02T06:37:36.457Z,100935
2022-11-02T06:42:44.909Z,100932
2022-11-02T06:47:36.260Z,100931
2022-11-02T06:52:36.259Z,100931
2022-11-02T06:57:36.428Z,100949
2022-11-02T07:02:36.619Z,100954
2022-11-02T07:07:36.372Z,100954
2022-11-02T07:12:36.282Z,100960
2022-11-02T07:17:36.373Z,100960
2022-11-02T07:22:36.510Z,100961
2022-11-02T07:27:36.355Z,100957
2022-11-02T07:32:36.453Z,100946
2022-11-02T07:37:36.617Z,100955
2022-11-02T07:42:36.268Z,100955
2022-11-02T07:47:36.287Z,100965
2022-11-02T07:52:36.274Z,100972
2022-11-02T07:57:36.303Z,100966
2022-11-02T08:02:36.309Z,100966
2022-11-02T08:07:36.315Z,100964
2022-11-02T08:12:36.265Z,100970
2022-11-02T08:17:36.495Z,100972
2022-11-02T08:22:36.633Z,100966
2022-11-02T08:27:36.451Z,100966
2022-11-02T08:32:36.723Z,100968
2022-11-02T08:37:36.271Z,100958
2022-11-02T08:42:36.578Z,100961
2022-11-02T08:47:36.331Z,100959
2022-11-02T08:52:40.478Z,100964
2022-11-02T08:57:36.389Z,100960
2022-11-02T09:02:36.681Z,100954
2022-11-02T09:07:36.324Z,100954
2022-11-02T09:12:36.336Z,100942
2022-11-02T09:17:36.625Z,100942
2022-11-02T09:22:36.459Z,100945
2022-11-02T09:27:36.332Z,100942
2022-11-02T09:32:36.371Z,100946
2022-11-02T09:37:36.619Z,100946
2022-11-02T09:42:36.423Z,100935
2022-11-02T09:48:15.261Z,100943
2022-11-02T09:52:36.316Z,100940
2022-11-02T09:57:36.474Z,100939
2022-11-02T10:02:36.711Z,100939
2022-11-02T10:07:36.447Z,100939
2022-11-02T10:12:36.345Z,100926
2022-11-02T10:17:36.357Z,100928
2022-11-02T10:22:36.334Z,100925
2022-11-02T10:27:36.413Z,100924
2022-11-02T10:37:36.647Z,100925
2022-11-02T10:42:36.500Z,100924
2022-11-02T10:47:36.669Z,100924
2022-11-02T10:52:36.513Z,100918
2022-11-02T10:57:36.665Z,100922
2022-11-02T11:02:36.376Z,100924
2022-11-02T11:07:36.588Z,100922
2022-11-02T11:12:36.696Z,100916
2022-11-02T11:22:36.710Z,100915
2022-11-02T11:32:36.689Z,100918
2022-11-02T11:37:36.520Z,100918
2022-11-02T11:42:36.685Z,100918
2022-11-02T11:47:36.430Z,100913
2022-11-02T11:52:36.622Z,100919
2022-11-02T12:02:42.836Z,100902
2022-11-02T12:07:36.400Z,100902
2022-11-02T12:12:36.564Z,100878
2022-11-02T12:17:36.738Z,100875
2022-11-02T12:22:36.395Z,100875
2022-11-02T12:27:36.539Z,100868
2022-11-02T12:32:36.462Z,100856
2022-11-02T12:42:39.245Z,100854
2022-11-02T12:47:36.625Z,100852
2022-11-02T12:52:36.448Z,100848
2022-11-02T12:57:36.432Z,100848
2022-11-02T13:02:36.451Z,100849
2022-11-02T13:07:36.460Z,100843
2022-11-02T13:12:36.447Z,100843
2022-11-02T13:17:36.435Z,100847
2022-11-02T13:22:36.782Z,100837
2022-11-02T13:27:37.570Z,100841
2022-11-02T13:32:36.648Z,100845
2022-11-02T13:37:36.779Z,100845
2022-11-02T13:42:36.411Z,100846
2022-11-02T13:52:36.834Z,100846
2022-11-02T13:57:36.697Z,100851
2022-11-02T14:02:36.585Z,100858
2022-11-02T14:07:36.492Z,100858
2022-11-02T14:12:36.520Z,100858
2022-11-02T14:17:36.488Z,100854
2022-11-02T14:22:36.777Z,100856
2022-11-02T14:27:36.485Z,100863
2022-11-02T14:37:36.527Z,100859
2022-11-02T14:42:36.478Z,100859
2022-11-02T14:47:36.495Z,100867
2022-11-02T14:52:36.504Z,100870
2022-11-02T14:57:36.629Z,100872
2022-11-02T15:02:40.320Z,100866
2022-11-02T15:07:36.619Z,100872
2022-11-02T15:12:36.621Z,100872
2022-11-02T15:17:36.487Z,100873
2022-11-02T15:22:36.791Z,100875
2022-11-02T15:27:36.767Z,100875
2022-11-02T15:32:36.555Z,100887
2022-11-02T15:37:50.340Z,100887
2022-11-02T15:42:36.571Z,100890
2022-11-02T15:47:36.698Z,100888
2022-11-02T15:57:36.929Z,100890
2022-11-02T16:02:36.518Z,100890
2022-11-02T16:07:49.872Z,100888
2022-11-02T16:12:36.798Z,100888
2022-11-02T16:17:36.562Z,100895
2022-11-02T16:27:37.050Z,100896
2022-11-02T16:32:36.718Z,100896
2022-11-02T16:37:36.553Z,100907
2022-11-02T16:42:36.517Z,100917
2022-11-02T16:47:36.744Z,100916
2022-11-02T16:52:36.567Z,100923
2022-11-02T16:57:36.634Z,100931
2022-11-02T17:02:36.863Z,100932
2022-11-02T17:07:36.962Z,100933
2022-11-02T17:12:36.664Z,100930
2022-11-02T17:17:36.553Z,100939
2022-11-02T17:22:37.099Z,100944
2022-11-02T17:27:39.477Z,100945
2022-11-02T17:32:37.445Z,100947
2022-11-02T17:37:36.694Z,100947
2022-11-02T17:42:36.779Z,100948
2022-11-02T17:47:36.880Z,100948
2022-11-02T17:57:37.138Z,100947
2022-11-02T18:02:37.018Z,100949
2022-11-02T18:07:37.128Z,100951
2022-11-02T18:12:36.699Z,100951
2022-11-02T18:17:36.876Z,100949
2022-11-02T18:22:36.886Z,100954
2022-11-02T18:27:36.649Z,100950
2022-11-02T18:37:36.929Z,100948
2022-11-02T18:42:37.176Z,100948
2022-11-02T18:47:36.988Z,100943
2022-11-02T18:52:37.574Z,100940
2022-11-02T18:57:36.882Z,100940
2022-11-02T19:02:36.741Z,100947
2022-11-02T19:07:36.731Z,100956
2022-11-02T19:12:36.868Z,100953
2022-11-02T19:17:36.698Z,100962
2022-11-02T19:22:37.042Z,100960
2022-11-02T19:27:36.769Z,100960
2022-11-02T19:32:36.935Z,100965
2022-11-02T19:37:36.784Z,100967
2022-11-02T19:42:37.024Z,100967
2022-11-02T19:47:36.850Z,100970
2022-11-02T19:52:37.638Z,100956
2022-11-02T19:57:37.141Z,100955
2022-11-02T20:02:37.225Z,100957
2022-11-02T20:07:37.208Z,100957
2022-11-02T20:12:36.957Z,100967
2022-11-02T20:17:51.996Z,100962
2022-11-02T20:22:36.871Z,100955
2022-11-02T20:27:36.642Z,100967
2022-11-02T20:32:36.949Z,100967
2022-11-02T20:37:37.086Z,100960
2022-11-02T20:42:36.945Z,100963
2022-11-02T20:47:37.067Z,100965
2022-11-02T20:52:37.743Z,100961
2022-11-02T20:57:36.663Z,100961
2022-11-02T21:02:36.933Z,100954
2022-11-02T21:07:37.051Z,100954
2022-11-02T21:12:37.102Z,100957
2022-11-02T21:22:36.787Z,100961
2022-11-02T21:27:37.109Z,100961
2022-11-02T21:32:36.878Z,100969
2022-11-02T21:37:36.696Z,100982
2022-11-02T21:42:37.027Z,100982
2022-11-02T21:47:36.873Z,100991
2022-11-02T21:52:37.875Z,100984
2022-11-02T21:57:36.716Z,100985
2022-11-02T22:02:37.035Z,100985
2022-11-02T22:07:36.813Z,100979
2022-11-02T22:12:37.175Z,100979
2022-11-02T22:17:49.328Z,100980
2022-11-02T22:22:36.887Z,100978
2022-11-02T22:27:36.709Z,100984
2022-11-02T22:32:36.885Z,100984
2022-11-02T22:37:37.028Z,100992
2022-11-02T22:42:39.801Z,100999
2022-11-02T22:47:37.025Z,100999
2022-11-02T22:52:36.729Z,101001
2022-11-02T22:57:36.956Z,100992
2022-11-02T23:02:36.769Z,101007
2022-11-02T23:07:36.773Z,101010
2022-11-02T23:12:36.743Z,101006
2022-11-02T23:17:37.171Z,101011
2022-11-02T23:22:36.739Z,101008
2022-11-02T23:27:36.672Z,100999
2022-11-02T23:32:36.707Z,101002
2022-11-02T23:37:36.720Z,101010
2022-11-02T23:42:36.683Z,101021
2022-11-02T23:47:36.724Z,101025
2022-11-02T23:52:36.928Z,101033
2022-11-02T23:57:36.744Z,101044
